createdAt,value
2018-08-31T00:00:32.913Z,15.55
2018-08-31T00:01:32.936Z,15.48
2018-08-31T00:02:32.971Z,15.60
2018-08-31T00:03:32.989Z,15.52
2018-08-31T00:04:33.021Z,15.54
2018-08-31T00:05:33.047Z,15.46
2018-08-31T00:06:33.073Z,15.57
2018-08-31T00:07:33.101Z,15.52
2018-08-31T00:08:33.130Z,15.57
2018-08-31T00:09:33.159Z,15.50
2018-08-31T00:10:33.194Z,15.55
2018-08-31T00:11:33.217Z,15.46
2018-08-31T00:12:33.242Z,15.54
2018-08-31T00:13:33.274Z,15.51
2018-08-31T00:14:33.302Z,15.50
2018-08-31T00:15:33.328Z,15.44
2018-08-31T00:16:33.354Z,15.60
2018-08-31T00:17:33.383Z,15.50
2018-08-31T00:18:33.413Z,15.46
2018-08-31T00:19:33.444Z,15.50
2018-08-31T00:20:33.468Z,15.42
2018-08-31T00:21:33.494Z,15.51
2018-08-31T00:22:33.525Z,15.50
2018-08-31T00:23:33.552Z,15.44
2018-08-31T00:24:33.581Z,15.43
2018-08-31T00:25:33.610Z,15.44
2018-08-31T00:26:33.637Z,15.46
2018-08-31T00:27:33.656Z,15.46
2018-08-31T00:28:33.693Z,15.46
2018-08-31T00:29:33.723Z,15.46
2018-08-31T00:30:33.755Z,15.43
2018-08-31T00:31:33.776Z,15.43
2018-08-31T00:32:33.804Z,15.44
2018-08-31T00:33:33.832Z,15.30
2018-08-31T00:34:33.860Z,15.40
2018-08-31T00:35:33.890Z,15.37
2018-08-31T00:36:33.918Z,15.44
2018-08-31T00:37:33.938Z,15.40
2018-08-31T00:38:33.978Z,15.42
2018-08-31T00:39:34.002Z,15.44
2018-08-31T00:40:34.034Z,15.44
2018-08-31T00:41:34.056Z,15.37
2018-08-31T00:42:34.123Z,15.35
2018-08-31T00:43:34.117Z,15.33
2018-08-31T00:44:34.143Z,15.32
2018-08-31T00:45:34.172Z,15.33
2018-08-31T00:46:34.197Z,15.32
2018-08-31T00:47:34.226Z,15.25
2018-08-31T00:48:34.256Z,15.25
2018-08-31T00:49:34.288Z,15.35
2018-08-31T00:50:34.313Z,15.36
2018-08-31T00:51:34.338Z,15.24
2018-08-31T00:52:34.368Z,15.28
2018-08-31T00:53:34.396Z,15.24
2018-08-31T00:54:34.422Z,15.25
2018-08-31T00:55:34.450Z,15.30
2018-08-31T00:56:34.480Z,15.25
2018-08-31T00:57:34.512Z,15.30
2018-08-31T00:58:34.534Z,15.22
2018-08-31T00:59:34.563Z,15.27
2018-08-31T01:00:34.589Z,15.25
2018-08-31T01:01:34.618Z,15.25
2018-08-31T01:02:34.647Z,15.22
2018-08-31T01:03:34.674Z,15.24
2018-08-31T01:04:34.697Z,15.28
2018-08-31T01:05:34.727Z,15.19
2018-08-31T01:06:34.761Z,15.15
2018-08-31T01:07:34.786Z,15.19
2018-08-31T01:08:34.816Z,15.18
2018-08-31T01:09:34.838Z,15.17
2018-08-31T01:10:34.867Z,15.22
2018-08-31T01:11:34.896Z,15.17
2018-08-31T01:12:34.932Z,15.14
2018-08-31T01:13:34.958Z,15.12
2018-08-31T01:14:34.999Z,15.14
2018-08-31T01:15:35.008Z,15.15
2018-08-31T01:16:35.030Z,15.11
2018-08-31T01:17:35.062Z,15.14
2018-08-31T01:18:35.094Z,15.14
2018-08-31T01:19:35.121Z,15.09
2018-08-31T01:20:35.148Z,15.17
2018-08-31T01:21:35.173Z,15.03
2018-08-31T01:22:35.212Z,15.07
2018-08-31T01:23:35.235Z,15.12
2018-08-31T01:24:35.262Z,15.04
2018-08-31T01:25:35.285Z,15.11
2018-08-31T01:26:35.319Z,15.04
2018-08-31T01:27:35.348Z,15.02
2018-08-31T01:28:35.416Z,15.03
2018-08-31T01:29:35.402Z,15.07
2018-08-31T01:30:35.429Z,15.03
2018-08-31T01:31:35.460Z,15.00
2018-08-31T01:32:35.486Z,15.02
2018-08-31T01:33:35.516Z,14.97
2018-08-31T01:34:35.544Z,15.02
2018-08-31T01:35:35.569Z,14.99
2018-08-31T01:36:35.598Z,15.07
2018-08-31T01:37:35.624Z,15.07
2018-08-31T01:38:35.649Z,15.03
2018-08-31T01:39:35.678Z,14.99
2018-08-31T01:40:35.707Z,14.99
2018-08-31T01:41:35.738Z,14.99
2018-08-31T01:42:35.764Z,14.93
2018-08-31T01:43:35.789Z,15.00
2018-08-31T01:44:35.819Z,14.97
2018-08-31T01:45:35.847Z,15.02
2018-08-31T01:46:35.872Z,14.99
2018-08-31T01:47:35.904Z,14.89
2018-08-31T01:48:35.933Z,14.97
2018-08-31T01:49:35.958Z,14.97
2018-08-31T01:50:35.984Z,14.95
2018-08-31T01:51:36.017Z,14.97
2018-08-31T01:52:36.087Z,14.97
2018-08-31T01:53:36.073Z,14.93
2018-08-31T01:54:36.095Z,14.85
2018-08-31T01:55:36.123Z,14.93
2018-08-31T01:56:36.152Z,14.88
2018-08-31T01:57:36.179Z,14.93
2018-08-31T01:58:36.207Z,14.87
2018-08-31T01:59:36.227Z,14.82
2018-08-31T02:00:36.269Z,14.82
2018-08-31T02:01:36.293Z,14.81
2018-08-31T02:02:36.319Z,14.81
2018-08-31T02:03:36.348Z,14.84
2018-08-31T02:04:36.381Z,14.84
2018-08-31T02:05:36.405Z,14.84
2018-08-31T02:06:36.424Z,14.79
2018-08-31T02:07:36.456Z,14.84
2018-08-31T02:08:36.486Z,14.81
2018-08-31T02:09:36.515Z,14.93
2018-08-31T02:10:36.540Z,14.84
2018-08-31T02:11:36.574Z,14.79
2018-08-31T02:12:36.597Z,14.82
2018-08-31T02:13:36.626Z,14.84
2018-08-31T02:14:36.649Z,14.87
2018-08-31T02:15:36.685Z,14.88
2018-08-31T02:16:36.708Z,14.87
2018-08-31T02:17:36.755Z,14.93
2018-08-31T02:18:36.765Z,14.99
2018-08-31T02:19:36.794Z,14.96
2018-08-31T02:20:36.819Z,14.91
2018-08-31T02:21:36.848Z,14.93
2018-08-31T02:22:36.871Z,14.95
2018-08-31T02:23:36.903Z,14.97
2018-08-31T02:24:36.932Z,14.96
2018-08-31T02:25:36.964Z,14.95
2018-08-31T02:26:36.986Z,15.03
2018-08-31T02:27:37.016Z,15.02
2018-08-31T02:28:37.038Z,15.06
2018-08-31T02:29:37.067Z,15.09
2018-08-31T02:30:37.095Z,15.07
2018-08-31T02:31:37.123Z,15.11
2018-08-31T02:32:37.152Z,15.11
2018-08-31T02:33:37.184Z,15.14
2018-08-31T02:34:37.206Z,15.12
2018-08-31T02:35:37.242Z,15.09
2018-08-31T02:36:37.265Z,15.12
2018-08-31T02:37:37.294Z,15.17
2018-08-31T02:38:37.319Z,15.12
2018-08-31T02:39:37.345Z,15.15
2018-08-31T02:40:37.380Z,15.14
2018-08-31T02:41:37.406Z,15.14
2018-08-31T02:42:37.432Z,15.21
2018-08-31T02:43:37.459Z,15.21
2018-08-31T02:44:37.485Z,15.27
2018-08-31T02:45:37.514Z,15.27
2018-08-31T02:46:37.543Z,15.30
2018-08-31T02:47:37.569Z,15.27
2018-08-31T02:48:37.626Z,15.25
2018-08-31T02:49:37.626Z,15.24
2018-08-31T02:50:37.652Z,15.24
2018-08-31T02:51:37.682Z,15.24
2018-08-31T02:52:37.711Z,15.35
2018-08-31T02:53:37.740Z,15.32
2018-08-31T02:54:37.768Z,15.35
2018-08-31T02:55:37.795Z,15.36
2018-08-31T02:56:37.820Z,15.43
2018-08-31T02:57:37.852Z,15.40
2018-08-31T02:58:37.874Z,15.39
2018-08-31T02:59:37.906Z,15.40
2018-08-31T03:00:37.932Z,15.33
2018-08-31T03:01:37.960Z,15.43
2018-08-31T03:02:37.985Z,15.40
2018-08-31T03:03:38.015Z,15.33
2018-08-31T03:04:38.044Z,15.42
2018-08-31T03:05:38.073Z,15.33
2018-08-31T03:06:38.098Z,15.46
2018-08-31T03:07:38.129Z,15.42
2018-08-31T03:08:38.156Z,15.44
2018-08-31T03:09:38.187Z,15.44
2018-08-31T03:10:38.210Z,15.44
2018-08-31T03:11:38.311Z,15.48
2018-08-31T03:12:38.267Z,15.46
2018-08-31T03:13:38.297Z,15.46
2018-08-31T03:14:38.325Z,15.46
2018-08-31T03:15:38.344Z,15.50
2018-08-31T03:16:38.378Z,15.51
2018-08-31T03:17:38.407Z,15.46
2018-08-31T03:18:38.433Z,15.58
2018-08-31T03:19:38.465Z,15.48
2018-08-31T03:20:38.492Z,15.57
2018-08-31T03:21:38.524Z,15.51
2018-08-31T03:22:38.549Z,15.50
2018-08-31T03:23:38.577Z,15.52
2018-08-31T03:24:38.604Z,15.61
2018-08-31T03:25:38.630Z,15.57
2018-08-31T03:26:38.652Z,15.52
2018-08-31T03:27:38.700Z,15.51
2018-08-31T03:28:38.720Z,15.46
2018-08-31T03:29:38.756Z,15.52
2018-08-31T03:30:38.770Z,15.46
2018-08-31T03:31:38.809Z,15.61
2018-08-31T03:32:38.828Z,15.61
2018-08-31T03:33:38.857Z,15.50
2018-08-31T03:34:38.886Z,15.50
2018-08-31T03:35:38.915Z,15.57
2018-08-31T03:36:38.947Z,15.50
2018-08-31T03:37:38.966Z,15.46
2018-08-31T03:38:38.995Z,15.48
2018-08-31T03:39:39.029Z,15.55
2018-08-31T03:40:39.056Z,15.50
2018-08-31T03:41:39.079Z,15.51
2018-08-31T03:42:39.108Z,15.55
2018-08-31T03:43:39.140Z,15.57
2018-08-31T03:44:39.172Z,15.54
2018-08-31T03:45:39.191Z,15.60
2018-08-31T03:46:39.217Z,15.54
2018-08-31T03:47:39.248Z,15.54
2018-08-31T03:48:39.278Z,15.54
2018-08-31T03:49:39.307Z,15.65
2018-08-31T03:50:39.335Z,15.57
2018-08-31T03:51:39.357Z,15.58
2018-08-31T03:52:39.390Z,15.62
2018-08-31T03:53:39.423Z,15.60
2018-08-31T03:54:39.444Z,15.57
2018-08-31T03:55:39.469Z,15.60
2018-08-31T03:56:39.500Z,15.58
2018-08-31T03:57:39.524Z,15.60
2018-08-31T03:58:39.558Z,15.60
2018-08-31T03:59:39.587Z,15.57
2018-08-31T04:00:39.609Z,15.62
2018-08-31T04:01:39.644Z,15.61
2018-08-31T04:02:39.664Z,15.58
2018-08-31T04:03:39.711Z,15.55
2018-08-31T04:04:39.725Z,15.61
2018-08-31T04:05:39.754Z,15.62
2018-08-31T04:06:39.787Z,15.65
2018-08-31T04:07:39.808Z,15.62
2018-08-31T04:08:39.844Z,15.60
2018-08-31T04:09:39.869Z,15.65
2018-08-31T04:10:39.893Z,15.50
2018-08-31T04:11:39.935Z,15.65
2018-08-31T04:12:39.955Z,15.61
2018-08-31T04:13:39.981Z,15.62
2018-08-31T04:14:40.006Z,15.60
2018-08-31T04:15:40.032Z,15.61
2018-08-31T04:16:40.066Z,15.55
2018-08-31T04:17:40.095Z,15.68
2018-08-31T04:18:40.117Z,15.65
2018-08-31T04:19:40.152Z,15.54
2018-08-31T04:20:40.165Z,15.60
2018-08-31T04:21:40.207Z,15.62
2018-08-31T04:22:40.234Z,15.61
2018-08-31T04:23:40.254Z,15.54
2018-08-31T04:24:40.287Z,15.61
2018-08-31T04:25:40.315Z,15.61
2018-08-31T04:26:40.341Z,15.64
2018-08-31T04:27:40.374Z,15.61
2018-08-31T04:28:40.399Z,15.69
2018-08-31T04:29:40.427Z,15.60
2018-08-31T04:30:40.456Z,15.69
2018-08-31T04:31:40.481Z,15.61
2018-08-31T04:32:40.510Z,15.65
2018-08-31T04:33:40.540Z,15.70
2018-08-31T04:34:40.581Z,15.64
2018-08-31T04:35:40.607Z,15.68
2018-08-31T04:36:40.632Z,15.68
2018-08-31T04:37:40.651Z,15.68
2018-08-31T04:38:40.674Z,15.60
2018-08-31T04:39:40.712Z,15.69
2018-08-31T04:41:40.762Z,15.69
2018-08-31T04:42:40.808Z,15.72
2018-08-31T04:43:40.827Z,15.69
2018-08-31T04:44:40.849Z,15.62
2018-08-31T04:45:40.876Z,15.69
2018-08-31T04:46:40.905Z,15.61
2018-08-31T04:47:40.934Z,15.65
2018-08-31T04:48:40.975Z,15.62
2018-08-31T04:49:41.003Z,15.68
2018-08-31T04:50:41.017Z,15.68
2018-08-31T04:51:41.055Z,15.62
2018-08-31T04:52:41.076Z,15.64
2018-08-31T04:53:41.106Z,15.65
2018-08-31T04:54:41.130Z,15.69
2018-08-31T04:55:41.159Z,15.68
2018-08-31T04:56:41.187Z,15.70
2018-08-31T04:57:41.221Z,15.68
2018-08-31T04:58:41.281Z,15.64
2018-08-31T04:59:41.270Z,15.64
2018-08-31T05:00:41.303Z,15.57
2018-08-31T05:01:41.335Z,15.77
2018-08-31T05:02:41.357Z,15.69
2018-08-31T05:03:41.382Z,15.75
2018-08-31T05:04:41.414Z,15.73
2018-08-31T05:05:41.446Z,15.70
2018-08-31T05:06:41.469Z,15.79
2018-08-31T05:07:41.495Z,15.72
2018-08-31T05:08:41.524Z,15.69
2018-08-31T05:09:41.553Z,15.72
2018-08-31T05:10:41.585Z,15.77
2018-08-31T05:11:41.607Z,15.73
2018-08-31T05:12:41.640Z,15.64
2018-08-31T05:13:41.682Z,15.69
2018-08-31T05:14:41.707Z,15.73
2018-08-31T05:15:41.723Z,15.77
2018-08-31T05:16:41.749Z,15.70
2018-08-31T05:17:41.777Z,15.75
2018-08-31T05:18:41.807Z,15.70
2018-08-31T05:19:41.826Z,15.70
2018-08-31T05:20:41.859Z,15.65
2018-08-31T05:21:41.889Z,15.73
2018-08-31T05:22:41.947Z,15.75
2018-08-31T05:24:41.971Z,15.75
2018-08-31T05:25:42.005Z,15.85
2018-08-31T05:26:42.032Z,15.85
2018-08-31T05:27:42.059Z,15.79
2018-08-31T05:28:42.095Z,15.91
2018-08-31T05:29:42.114Z,15.88
2018-08-31T05:30:42.161Z,15.88
2018-08-31T05:31:42.171Z,15.90
2018-08-31T05:32:42.200Z,15.83
2018-08-31T05:33:42.229Z,15.85
2018-08-31T05:34:42.259Z,15.85
2018-08-31T05:35:42.295Z,16.00
2018-08-31T05:36:42.314Z,15.88
2018-08-31T05:37:42.343Z,16.00
2018-08-31T05:38:42.369Z,15.88
2018-08-31T05:39:42.398Z,15.98
2018-08-31T05:40:42.429Z,16.06
2018-08-31T05:41:42.458Z,15.94
2018-08-31T05:42:42.486Z,16.02
2018-08-31T05:43:42.511Z,16.00
2018-08-31T05:44:42.540Z,16.05
2018-08-31T05:45:42.569Z,16.10
2018-08-31T05:46:42.597Z,16.09
2018-08-31T05:47:42.623Z,16.09
2018-08-31T05:48:42.652Z,16.10
2018-08-31T05:49:42.681Z,16.08
2018-08-31T05:50:42.709Z,16.13
2018-08-31T05:51:42.739Z,16.20
2018-08-31T05:52:42.771Z,16.16
2018-08-31T05:53:42.901Z,16.20
2018-08-31T05:54:42.828Z,16.13
2018-08-31T05:55:42.850Z,16.20
2018-08-31T05:56:42.879Z,16.26
2018-08-31T05:57:42.914Z,16.24
2018-08-31T05:58:42.941Z,16.35
2018-08-31T05:59:42.959Z,16.31
2018-08-31T06:00:42.994Z,16.36
2018-08-31T06:01:43.020Z,16.34
2018-08-31T06:02:43.045Z,16.36
2018-08-31T06:03:43.079Z,16.35
2018-08-31T06:05:43.138Z,16.49
2018-08-31T06:06:43.163Z,16.41
2018-08-31T06:07:43.193Z,16.44
2018-08-31T06:08:43.224Z,16.51
2018-08-31T06:09:43.250Z,16.49
2018-08-31T06:10:43.278Z,16.51
2018-08-31T06:11:43.357Z,16.54
2018-08-31T06:12:43.338Z,16.57
2018-08-31T06:13:43.357Z,16.62
2018-08-31T06:14:43.388Z,16.56
2018-08-31T06:15:43.421Z,16.57
2018-08-31T06:16:43.452Z,16.57
2018-08-31T06:17:43.479Z,16.62
2018-08-31T06:18:43.504Z,16.64
2018-08-31T06:19:43.540Z,16.68
2018-08-31T06:20:43.564Z,16.66
2018-08-31T06:21:43.597Z,16.65
2018-08-31T06:22:43.622Z,16.65
2018-08-31T06:23:43.651Z,16.75
2018-08-31T06:24:43.679Z,16.79
2018-08-31T06:25:43.712Z,16.75
2018-08-31T06:26:43.725Z,16.72
2018-08-31T06:27:43.766Z,16.83
2018-08-31T06:28:43.794Z,16.86
2018-08-31T06:29:43.815Z,16.82
2018-08-31T06:30:43.850Z,16.84
2018-08-31T06:31:43.879Z,16.84
2018-08-31T06:32:43.952Z,16.89
2018-08-31T06:33:43.994Z,16.96
2018-08-31T06:34:43.962Z,16.89
2018-08-31T06:35:43.995Z,16.94
2018-08-31T06:36:44.074Z,16.87
2018-08-31T06:37:44.074Z,16.93
2018-08-31T06:38:44.086Z,16.93
2018-08-31T06:39:44.117Z,16.96
2018-08-31T06:40:44.190Z,16.96
2018-08-31T06:41:44.168Z,16.93
2018-08-31T06:42:44.197Z,16.99
2018-08-31T06:43:44.225Z,16.99
2018-08-31T06:44:44.255Z,17.04
2018-08-31T06:45:44.284Z,16.99
2018-08-31T06:46:44.320Z,17.08
2018-08-31T06:47:44.343Z,17.04
2018-08-31T06:48:44.372Z,17.12
2018-08-31T06:49:44.412Z,17.09
2018-08-31T06:50:44.429Z,17.09
2018-08-31T06:51:44.452Z,17.20
2018-08-31T06:52:44.491Z,17.20
2018-08-31T06:53:44.520Z,17.22
2018-08-31T06:54:44.549Z,17.19
2018-08-31T06:55:44.577Z,17.20
2018-08-31T06:56:44.597Z,17.23
2018-08-31T06:57:44.634Z,17.26
2018-08-31T06:58:44.663Z,17.24
2018-08-31T06:59:44.689Z,17.22
2018-08-31T07:00:44.727Z,17.23
2018-08-31T07:01:44.753Z,17.23
2018-08-31T07:02:44.775Z,17.24
2018-08-31T07:03:44.820Z,17.31
2018-08-31T07:04:44.836Z,17.33
2018-08-31T07:05:44.876Z,17.35
2018-08-31T07:06:44.895Z,17.30
2018-08-31T07:07:44.924Z,17.37
2018-08-31T07:08:44.963Z,17.31
2018-08-31T07:09:44.982Z,17.35
2018-08-31T07:10:45.007Z,17.38
2018-08-31T07:11:45.037Z,17.42
2018-08-31T07:12:45.065Z,17.41
2018-08-31T07:13:45.098Z,17.39
2018-08-31T07:14:45.125Z,17.42
2018-08-31T07:15:45.155Z,17.48
2018-08-31T07:16:45.186Z,17.38
2018-08-31T07:17:45.215Z,17.42
2018-08-31T07:18:45.403Z,17.41
2018-08-31T07:19:45.310Z,17.51
2018-08-31T07:20:45.304Z,17.60
2018-08-31T07:21:45.330Z,17.56
2018-08-31T07:22:45.359Z,17.56
2018-08-31T07:23:45.391Z,17.51
2018-08-31T07:24:45.417Z,17.57
2018-08-31T07:25:45.452Z,17.59
2018-08-31T07:26:45.535Z,17.63
2018-08-31T07:27:45.505Z,17.59
2018-08-31T07:28:45.528Z,17.67
2018-08-31T07:29:45.563Z,17.71
2018-08-31T07:30:45.598Z,17.57
2018-08-31T07:31:45.630Z,17.64
2018-08-31T07:32:45.653Z,17.71
2018-08-31T07:33:45.686Z,17.64
2018-08-31T07:34:45.712Z,17.63
2018-08-31T07:35:45.795Z,17.73
2018-08-31T07:36:45.766Z,17.70
2018-08-31T07:37:45.799Z,17.76
2018-08-31T07:38:45.830Z,17.80
2018-08-31T07:39:45.860Z,17.73
2018-08-31T07:40:45.888Z,17.80
2018-08-31T07:41:45.917Z,17.82
2018-08-31T07:42:45.949Z,17.85
2018-08-31T07:43:45.981Z,17.86
2018-08-31T07:44:46.008Z,17.91
2018-08-31T07:45:46.033Z,17.88
2018-08-31T07:46:46.065Z,17.89
2018-08-31T07:47:46.116Z,18.04
2018-08-31T07:48:46.126Z,18.04
2018-08-31T07:49:46.155Z,18.13
2018-08-31T07:50:46.184Z,18.04
2018-08-31T07:51:46.212Z,18.13
2018-08-31T07:52:46.252Z,18.10
2018-08-31T07:53:46.274Z,18.15
2018-08-31T07:54:46.303Z,18.25
2018-08-31T07:55:46.334Z,18.34
2018-08-31T07:56:46.364Z,18.31
2018-08-31T07:57:46.399Z,18.38
2018-08-31T07:58:46.421Z,18.43
2018-08-31T07:59:46.447Z,18.49
2018-08-31T08:00:46.483Z,18.48
2018-08-31T08:01:46.530Z,18.53
2018-08-31T08:02:46.540Z,18.68
2018-08-31T08:03:46.569Z,18.70
2018-08-31T08:04:46.603Z,18.78
2018-08-31T08:05:46.624Z,18.78
2018-08-31T08:06:46.658Z,18.78
2018-08-31T08:07:46.686Z,18.89
2018-08-31T08:08:46.718Z,19.00
2018-08-31T08:09:46.747Z,19.05
2018-08-31T08:10:46.779Z,19.16
2018-08-31T08:11:46.825Z,19.27
2018-08-31T08:12:46.843Z,19.31
2018-08-31T08:13:46.886Z,19.42
2018-08-31T08:14:46.950Z,19.52
2018-08-31T08:15:46.931Z,19.56
2018-08-31T08:16:46.963Z,19.55
2018-08-31T08:17:46.995Z,19.67
2018-08-31T08:18:47.024Z,19.74
2018-08-31T08:19:47.053Z,19.84
2018-08-31T08:20:47.084Z,19.88
2018-08-31T08:21:47.116Z,19.96
2018-08-31T08:22:47.144Z,20.07
2018-08-31T08:23:47.170Z,20.10
2018-08-31T08:24:47.209Z,20.25
2018-08-31T08:25:47.240Z,20.28
2018-08-31T08:26:47.268Z,20.26
2018-08-31T08:27:47.306Z,20.41
2018-08-31T08:28:47.332Z,20.41
2018-08-31T08:29:47.361Z,20.53
2018-08-31T08:30:47.390Z,20.66
2018-08-31T08:31:47.423Z,20.65
2018-08-31T08:32:47.453Z,20.81
2018-08-31T08:33:47.482Z,20.89
2018-08-31T08:34:47.520Z,20.90
2018-08-31T08:35:47.600Z,21.00
2018-08-31T08:36:47.580Z,21.10
2018-08-31T08:37:47.614Z,21.14
2018-08-31T08:38:47.639Z,21.32
2018-08-31T08:39:47.663Z,21.33
2018-08-31T08:40:47.703Z,21.45
2018-08-31T08:41:47.735Z,21.57
2018-08-31T08:42:47.766Z,21.72
2018-08-31T08:43:47.795Z,21.73
2018-08-31T08:44:47.828Z,21.82
2018-08-31T08:45:47.870Z,21.88
2018-08-31T08:46:47.894Z,21.96
2018-08-31T08:47:47.926Z,22.07
2018-08-31T08:48:48.285Z,22.17
2018-08-31T08:49:48.003Z,22.23
2018-08-31T08:50:48.019Z,22.25
2018-08-31T08:51:48.059Z,22.36
2018-08-31T08:52:48.088Z,22.43
2018-08-31T08:53:48.117Z,22.41
2018-08-31T08:54:48.156Z,22.53
2018-08-31T08:55:48.183Z,22.47
2018-08-31T08:56:48.216Z,22.60
2018-08-31T08:57:48.248Z,22.62
2018-08-31T08:58:48.284Z,22.62
2018-08-31T08:59:48.315Z,22.66
2018-08-31T09:00:48.375Z,22.72
2018-08-31T09:01:48.376Z,22.75
2018-08-31T09:02:48.411Z,22.81
2018-08-31T09:03:48.447Z,22.81
2018-08-31T09:04:48.475Z,22.84
2018-08-31T09:05:48.511Z,22.85
2018-08-31T09:06:48.552Z,22.87
2018-08-31T09:07:48.577Z,22.93
2018-08-31T09:08:48.609Z,22.91
2018-08-31T09:09:48.674Z,23.00
2018-08-31T09:10:48.680Z,22.99
2018-08-31T09:11:48.727Z,23.09
2018-08-31T09:12:48.748Z,23.06
2018-08-31T09:13:48.783Z,23.24
2018-08-31T09:14:48.811Z,23.25
2018-08-31T09:15:48.844Z,23.36
2018-08-31T09:16:48.880Z,23.44
2018-08-31T09:17:48.909Z,23.48
2018-08-31T09:18:48.941Z,23.58
2018-08-31T09:19:48.974Z,23.58
2018-08-31T09:20:49.008Z,23.65
2018-08-31T09:21:49.043Z,23.66
2018-08-31T09:22:49.073Z,23.78
2018-08-31T09:23:49.107Z,23.81
2018-08-31T09:24:49.145Z,23.73
2018-08-31T09:25:49.172Z,23.90
2018-08-31T09:26:49.214Z,23.90
2018-08-31T09:27:49.261Z,24.00
2018-08-31T09:28:49.286Z,24.07
2018-08-31T09:29:49.308Z,24.11
2018-08-31T09:30:49.346Z,24.11
2018-08-31T09:31:49.376Z,24.20
2018-08-31T09:32:49.417Z,24.21
2018-08-31T09:33:49.449Z,24.37
2018-08-31T09:34:49.480Z,24.23
2018-08-31T09:35:49.516Z,24.20
2018-08-31T09:36:49.555Z,24.33
2018-08-31T09:37:49.589Z,24.35
2018-08-31T09:38:49.618Z,24.33
2018-08-31T09:39:49.653Z,24.33
2018-08-31T09:40:49.686Z,24.26
2018-08-31T09:41:49.719Z,24.33
2018-08-31T09:42:49.760Z,24.26
2018-08-31T09:43:49.816Z,24.23
2018-08-31T09:44:49.821Z,24.18
2018-08-31T09:45:49.856Z,24.11
2018-08-31T09:46:49.895Z,24.13
2018-08-31T09:47:49.927Z,24.08
2018-08-31T09:48:49.959Z,24.08
2018-08-31T09:49:50.082Z,24.07
2018-08-31T09:50:50.032Z,24.13
2018-08-31T09:51:50.064Z,24.03
2018-08-31T09:52:50.096Z,24.07
2018-08-31T09:53:50.131Z,24.03
2018-08-31T09:54:50.167Z,24.05
2018-08-31T09:55:50.198Z,24.05
2018-08-31T09:56:50.240Z,24.02
2018-08-31T09:57:50.268Z,24.08
2018-08-31T09:58:50.305Z,24.08
2018-08-31T09:59:50.335Z,24.08
2018-08-31T10:00:50.370Z,24.10
2018-08-31T10:01:50.406Z,24.07
2018-08-31T10:02:50.441Z,24.11
2018-08-31T10:03:50.474Z,24.08
2018-08-31T10:04:50.503Z,24.07
2018-08-31T10:05:50.555Z,24.08
2018-08-31T10:06:50.573Z,23.96
2018-08-31T10:07:50.609Z,24.05
2018-08-31T10:08:50.651Z,24.07
2018-08-31T10:09:50.680Z,24.08
2018-08-31T10:10:50.774Z,24.20
2018-08-31T10:11:50.746Z,24.18
2018-08-31T10:12:50.795Z,24.32
2018-08-31T10:13:50.817Z,24.33
2018-08-31T10:14:50.852Z,24.37
2018-08-31T10:15:50.884Z,24.44
2018-08-31T10:16:50.926Z,24.43
2018-08-31T10:17:50.958Z,24.48
2018-08-31T10:18:51.144Z,24.62
2018-08-31T10:19:51.022Z,24.69
2018-08-31T10:20:51.058Z,24.81
2018-08-31T10:21:51.148Z,24.93
2018-08-31T10:22:51.138Z,25.19
2018-08-31T10:23:51.167Z,25.35
2018-08-31T10:24:51.192Z,25.45
2018-08-31T10:25:51.240Z,25.70
2018-08-31T10:26:51.264Z,25.73
2018-08-31T10:27:51.292Z,25.65
2018-08-31T10:28:51.337Z,25.59
2018-08-31T10:29:51.373Z,25.58
2018-08-31T10:30:51.401Z,25.55
2018-08-31T10:31:51.438Z,25.48
2018-08-31T10:32:51.480Z,25.77
2018-08-31T10:33:51.505Z,25.99
2018-08-31T10:34:51.544Z,26.28
2018-08-31T10:35:51.581Z,26.44
2018-08-31T10:36:51.612Z,26.62
2018-08-31T10:37:51.650Z,26.43
2018-08-31T10:38:51.685Z,26.60
2018-08-31T10:39:51.724Z,26.44
2018-08-31T10:40:51.755Z,26.28
2018-08-31T10:41:51.792Z,25.92
2018-08-31T10:42:51.827Z,25.82
2018-08-31T10:43:51.858Z,25.65
2018-08-31T10:44:51.896Z,25.59
2018-08-31T10:45:51.931Z,25.44
2018-08-31T10:46:51.971Z,25.32
2018-08-31T10:47:51.998Z,25.28
2018-08-31T10:48:52.050Z,25.44
2018-08-31T10:49:52.081Z,25.93
2018-08-31T10:50:52.115Z,26.20
2018-08-31T10:51:52.144Z,26.55
2018-08-31T10:52:52.180Z,26.82
2018-08-31T10:53:52.215Z,27.05
2018-08-31T10:54:52.250Z,27.17
2018-08-31T10:55:52.279Z,27.37
2018-08-31T10:56:52.324Z,27.41
2018-08-31T10:57:52.359Z,27.32
2018-08-31T10:58:52.388Z,27.00
2018-08-31T10:59:52.429Z,26.74
2018-08-31T11:00:52.466Z,26.67
2018-08-31T11:01:52.502Z,26.80
2018-08-31T11:02:52.545Z,26.53
2018-08-31T11:03:52.579Z,26.26
2018-08-31T11:04:52.612Z,26.22
2018-08-31T11:05:52.650Z,25.82
2018-08-31T11:06:52.681Z,25.80
2018-08-31T11:07:52.716Z,25.60
2018-08-31T11:08:52.755Z,25.48
2018-08-31T11:09:52.792Z,25.28
2018-08-31T11:10:52.825Z,25.08
2018-08-31T11:11:52.868Z,24.88
2018-08-31T11:12:52.907Z,24.82
2018-08-31T11:13:52.945Z,24.70
2018-08-31T11:14:52.967Z,24.63
2018-08-31T11:15:53.004Z,24.51
2018-08-31T11:16:53.039Z,24.47
2018-08-31T11:17:53.073Z,24.33
2018-08-31T11:18:53.212Z,24.30
2018-08-31T11:19:53.144Z,24.23
2018-08-31T11:20:53.179Z,24.70
2018-08-31T11:21:53.230Z,25.37
2018-08-31T11:22:53.250Z,25.87
2018-08-31T11:23:53.285Z,26.31
2018-08-31T11:24:53.327Z,26.82
2018-08-31T11:25:53.359Z,27.19
2018-08-31T11:26:53.381Z,27.52
2018-08-31T11:27:53.455Z,27.83
2018-08-31T11:28:53.463Z,28.19
2018-08-31T11:29:53.500Z,28.51
2018-08-31T11:30:53.522Z,28.79
2018-08-31T11:31:53.574Z,29.11
2018-08-31T11:32:53.602Z,29.36
2018-08-31T11:33:53.644Z,29.55
2018-08-31T11:34:53.674Z,29.84
2018-08-31T11:35:53.719Z,30.09
2018-08-31T11:36:53.754Z,30.25
2018-08-31T11:37:53.779Z,30.47
2018-08-31T11:38:53.821Z,30.72
2018-08-31T11:39:53.855Z,30.84
2018-08-31T11:40:53.890Z,30.91
2018-08-31T11:41:53.922Z,30.93
2018-08-31T11:42:53.973Z,31.00
2018-08-31T11:43:53.999Z,31.19
2018-08-31T11:44:54.037Z,31.31
2018-08-31T11:45:54.116Z,31.21
2018-08-31T11:46:54.115Z,31.33
2018-08-31T11:47:54.154Z,31.62
2018-08-31T11:48:54.195Z,31.82
2018-08-31T11:49:54.234Z,31.94
2018-08-31T11:50:54.271Z,31.12
2018-08-31T11:51:54.320Z,30.36
2018-08-31T11:52:54.345Z,29.87
2018-08-31T11:53:54.383Z,29.55
2018-08-31T11:54:54.421Z,29.07
2018-08-31T11:55:54.453Z,28.75
2018-08-31T11:56:54.504Z,28.48
2018-08-31T11:57:54.533Z,28.27
2018-08-31T11:58:54.574Z,27.90
2018-08-31T11:59:54.608Z,27.79
2018-08-31T12:00:54.669Z,27.46
2018-08-31T12:01:54.736Z,27.34
2018-08-31T12:02:54.724Z,27.08
2018-08-31T12:03:54.763Z,26.90
2018-08-31T12:04:54.803Z,26.67
2018-08-31T12:05:54.845Z,26.45
2018-08-31T12:06:54.882Z,26.25
2018-08-31T12:07:54.978Z,26.12
2018-08-31T12:08:54.954Z,25.80
2018-08-31T12:09:54.986Z,25.80
2018-08-31T12:10:55.016Z,25.70
2018-08-31T12:11:55.066Z,25.60
2018-08-31T12:12:55.097Z,25.47
2018-08-31T12:13:55.133Z,25.28
2018-08-31T12:14:55.167Z,25.18
2018-08-31T12:15:55.207Z,24.98
2018-08-31T12:16:55.242Z,24.98
2018-08-31T12:17:55.278Z,24.95
2018-08-31T12:18:55.314Z,24.83
2018-08-31T12:19:55.352Z,24.88
2018-08-31T12:20:55.391Z,24.70
2018-08-31T12:21:55.420Z,24.82
2018-08-31T12:22:55.464Z,25.20
2018-08-31T12:23:55.493Z,25.23
2018-08-31T12:24:55.531Z,25.10
2018-08-31T12:25:55.564Z,25.25
2018-08-31T12:26:55.599Z,25.65
2018-08-31T12:27:55.627Z,25.95
2018-08-31T12:28:55.669Z,26.18
2018-08-31T12:29:55.705Z,26.33
2018-08-31T12:30:55.740Z,26.45
2018-08-31T12:31:55.778Z,26.59
2018-08-31T12:32:55.811Z,26.81
2018-08-31T12:33:55.852Z,26.92
2018-08-31T12:34:55.881Z,27.05
2018-08-31T12:35:55.916Z,26.85
2018-08-31T12:36:55.952Z,26.57
2018-08-31T12:37:55.987Z,26.35
2018-08-31T12:38:56.023Z,26.25
2018-08-31T12:39:56.062Z,26.00
2018-08-31T12:40:56.090Z,26.06
2018-08-31T12:41:56.126Z,26.04
2018-08-31T12:42:56.164Z,25.99
2018-08-31T12:43:56.282Z,26.03
2018-08-31T12:44:56.228Z,25.84
2018-08-31T12:45:56.278Z,25.88
2018-08-31T12:46:56.303Z,25.69
2018-08-31T12:47:56.341Z,25.65
2018-08-31T12:48:56.374Z,25.53
2018-08-31T12:49:56.409Z,25.35
2018-08-31T12:50:56.444Z,25.35
2018-08-31T12:51:56.477Z,25.30
2018-08-31T12:52:56.516Z,25.26
2018-08-31T12:53:56.550Z,25.22
2018-08-31T12:54:56.579Z,25.04
2018-08-31T12:55:56.618Z,25.04